createdAt,value
2018-04-26T00:02:13.426Z,16.48
2018-04-26T00:04:43.404Z,15.88
2018-04-26T00:07:12.449Z,16.33
2018-04-26T00:09:41.533Z,16.17
2018-04-26T00:12:10.597Z,16.20
2018-04-26T00:14:40.417Z,16.42
2018-04-26T00:17:10.465Z,16.60
2018-04-26T00:19:39.625Z,16.30
2018-04-26T00:22:09.442Z,17.42
2018-04-26T00:24:39.225Z,16.85
2018-04-26T00:28:11.209Z,17.02
2018-04-26T00:30:41.027Z,16.30
2018-04-26T00:33:10.835Z,15.73
2018-04-26T00:35:40.600Z,14.52
2018-04-26T00:38:09.661Z,15.20
2018-04-26T00:40:38.666Z,15.40
2018-04-26T00:43:08.450Z,14.98
2018-04-26T00:45:38.360Z,14.55
2018-04-26T00:48:08.211Z,14.43
2018-04-26T00:50:37.370Z,15.75
2018-04-26T00:53:07.166Z,14.40
2018-04-26T00:55:36.209Z,15.52
2018-04-26T00:58:05.228Z,14.50
2018-04-26T01:00:34.266Z,15.20
2018-04-26T01:03:04.265Z,15.63
2018-04-26T01:05:33.343Z,14.90
2018-04-26T01:08:02.467Z,17.20
2018-04-26T01:10:31.549Z,15.55
2018-04-26T01:13:00.615Z,16.70
2018-04-26T01:15:29.828Z,16.55
2018-04-26T01:17:58.835Z,16.58
2018-04-26T01:20:28.690Z,17.35
2018-04-26T01:22:58.480Z,16.73
2018-04-26T01:25:28.345Z,16.08
2018-04-26T01:27:57.650Z,15.32
2018-04-26T01:30:26.755Z,16.58
2018-04-26T01:32:55.865Z,16.40
2018-04-26T01:35:24.885Z,16.40
2018-04-26T01:37:54.675Z,16.15
2018-04-26T01:40:24.561Z,16.77
2018-04-26T01:43:07.955Z,16.48
2018-04-26T01:45:36.991Z,17.58
2018-04-26T01:48:06.005Z,16.60
2018-04-26T01:50:35.030Z,19.05
2018-04-26T01:53:04.366Z,17.67
2018-04-26T01:55:33.368Z,18.62
2018-04-26T01:58:02.615Z,17.42
2018-04-26T02:00:32.380Z,19.00
2018-04-26T02:03:01.457Z,18.70
2018-04-26T02:05:31.088Z,18.90
2018-04-26T02:08:00.964Z,19.42
2018-04-26T02:10:29.961Z,15.38
2018-04-26T02:12:58.989Z,16.15
2018-04-26T02:15:28.295Z,17.23
2018-04-26T02:17:57.502Z,16.85
2018-04-26T02:20:26.602Z,17.27
2018-04-26T02:22:55.682Z,15.48
2018-04-26T02:25:25.498Z,14.65
2018-04-26T02:27:54.489Z,13.55
2018-04-26T02:30:23.523Z,15.10
2018-04-26T02:32:53.301Z,14.02
2018-04-26T02:35:22.323Z,13.40
2018-04-26T02:37:53.144Z,13.52
2018-04-26T02:40:22.259Z,12.68
2018-04-26T02:42:51.282Z,12.57
2018-04-26T02:45:20.411Z,14.18
2018-04-26T02:47:49.440Z,12.77
2018-04-26T02:50:19.215Z,13.57
2018-04-26T02:52:49.664Z,13.07
2018-04-26T02:55:19.798Z,13.15
2018-04-26T02:57:49.612Z,12.15
2018-04-26T03:00:18.675Z,10.93
2018-04-26T03:02:47.691Z,11.05
2018-04-26T03:05:17.493Z,10.00
2018-04-26T03:07:47.306Z,9.90
2018-04-26T03:10:17.099Z,8.57
2018-04-26T03:12:47.528Z,8.30
2018-04-26T03:15:16.540Z,9.50
2018-04-26T03:17:46.398Z,9.93
2018-04-26T03:20:15.443Z,8.52
2018-04-26T03:22:44.467Z,7.93
2018-04-26T03:25:13.465Z,7.65
2018-04-26T03:27:43.854Z,7.95
2018-04-26T03:30:13.641Z,7.10
2018-04-26T03:32:42.637Z,8.23
2018-04-26T03:35:11.742Z,6.70
2018-04-26T03:37:41.605Z,8.48
2018-04-26T03:40:11.581Z,7.32
2018-04-26T03:42:43.130Z,6.82
2018-04-26T03:45:12.395Z,6.75
2018-04-26T03:47:41.528Z,6.72
2018-04-26T03:50:10.614Z,6.82
2018-04-26T03:52:39.633Z,6.65
2018-04-26T03:55:10.007Z,6.97
2018-04-26T03:57:39.010Z,6.87
2018-04-26T04:00:18.979Z,7.18
2018-04-26T04:05:00.768Z,7.60
2018-04-26T04:07:29.819Z,7.43
2018-04-26T04:09:58.910Z,6.80
2018-04-26T04:12:27.973Z,7.10
2018-04-26T04:14:56.979Z,6.68
2018-04-26T04:17:26.810Z,7.18
2018-04-26T04:19:55.892Z,6.03
2018-04-26T04:22:25.767Z,7.45
2018-04-26T04:24:57.221Z,7.00
2018-04-26T04:27:26.274Z,6.47
2018-04-26T04:29:55.262Z,6.72
2018-04-26T04:32:24.294Z,7.53
2018-04-26T04:34:53.327Z,6.37
2018-04-26T04:37:23.121Z,7.15
2018-04-26T04:39:52.182Z,6.53
2018-04-26T04:42:21.269Z,6.90
2018-04-26T04:44:50.389Z,6.43
2018-04-26T04:47:20.116Z,6.20
2018-04-26T04:49:49.970Z,5.57
2018-04-26T04:52:19.023Z,7.37
2018-04-26T04:54:48.166Z,5.93
2018-04-26T04:57:17.248Z,6.45
2018-04-26T04:59:46.360Z,5.70
2018-04-26T05:02:15.448Z,6.28
2018-04-26T05:04:44.926Z,5.85
2018-04-26T05:07:14.846Z,6.57
2018-04-26T05:09:45.074Z,6.00
2018-04-26T05:12:14.916Z,6.40
2018-04-26T05:14:44.077Z,5.45
2018-04-26T05:17:15.086Z,5.68
2018-04-26T05:19:44.331Z,5.75
2018-04-26T05:22:13.404Z,5.90
2018-04-26T05:24:43.602Z,5.57
2018-04-26T05:27:13.497Z,5.60
2018-04-26T05:29:42.969Z,6.12
2018-04-26T05:32:12.127Z,5.30
2018-04-26T05:34:41.233Z,5.85
2018-04-26T05:37:11.083Z,5.93
2018-04-26T05:39:40.262Z,6.68
2018-04-26T05:42:13.676Z,6.60
2018-04-26T05:44:43.793Z,5.97
2018-04-26T05:47:12.916Z,6.05
2018-04-26T05:49:42.973Z,6.45
2018-04-26T05:52:14.960Z,6.40
2018-04-26T05:54:46.042Z,6.57
2018-04-26T05:57:15.796Z,7.05
2018-04-26T05:59:46.773Z,6.20
2018-04-26T06:02:15.897Z,7.20
2018-04-26T06:04:45.703Z,6.95
2018-04-26T06:07:19.859Z,7.40
2018-04-26T06:09:50.410Z,8.18
2018-04-26T06:12:21.524Z,7.45
2018-04-26T06:14:51.471Z,7.20
2018-04-26T06:17:20.693Z,7.97
2018-04-26T06:19:53.365Z,8.45
2018-04-26T06:22:28.323Z,10.02
2018-04-26T06:24:57.667Z,9.32
2018-04-26T06:27:29.405Z,8.80
2018-04-26T06:30:07.305Z,9.00
2018-04-26T06:32:37.765Z,9.98
2018-04-26T06:35:13.838Z,9.60
2018-04-26T06:37:48.061Z,10.63
2018-04-26T06:40:17.315Z,10.13
2018-04-26T06:42:52.024Z,8.07
2018-04-26T06:45:24.874Z,9.95
2018-04-26T06:47:56.478Z,8.30
2018-04-26T06:50:30.609Z,7.25
2018-04-26T06:53:03.276Z,6.47
2018-04-26T06:55:38.838Z,6.30
2018-04-26T06:58:08.388Z,7.10
2018-04-26T07:00:37.606Z,6.50
2018-04-26T07:03:07.742Z,6.18
2018-04-26T07:05:39.005Z,6.30
2018-04-26T07:08:08.263Z,5.50
2018-04-26T07:10:38.147Z,5.55
2018-04-26T07:13:13.565Z,5.95
2018-04-26T07:15:43.342Z,4.75
2018-04-26T07:18:16.446Z,5.85
2018-04-26T07:20:46.302Z,6.60
2018-04-26T07:23:16.334Z,6.50
2018-04-26T07:28:24.469Z,5.47
2018-04-26T07:30:57.087Z,6.82
2018-04-26T07:33:28.682Z,6.43
2018-04-26T07:36:01.752Z,6.72
2018-04-26T07:40:38.314Z,7.05
2018-04-26T07:43:09.350Z,6.68
2018-04-26T07:45:45.158Z,7.00
2018-04-26T07:48:16.774Z,6.95
2018-04-26T07:50:55.687Z,5.20
2018-04-26T07:53:25.295Z,4.90
2018-04-26T07:55:55.563Z,4.10
2018-04-26T07:58:25.172Z,3.78
2018-04-26T08:01:00.961Z,4.43
2018-04-26T08:03:37.021Z,4.37
2018-04-26T08:06:07.192Z,3.37
2018-04-26T08:08:41.974Z,3.15
2018-04-26T08:11:22.130Z,2.87
2018-04-26T08:13:52.571Z,3.80
2018-04-26T08:16:29.185Z,3.55
2018-04-26T08:18:59.348Z,3.45
2018-04-26T08:21:28.772Z,2.15
2018-04-26T08:23:58.091Z,2.50
2018-04-26T08:26:27.199Z,2.50
2018-04-26T08:29:03.916Z,2.92
2018-04-26T08:31:34.272Z,3.20
2018-04-26T08:34:10.468Z,3.40
2018-04-26T08:36:45.048Z,4.18
2018-04-26T08:39:24.175Z,3.10
2018-04-26T08:41:54.230Z,3.30
2018-04-26T08:44:23.704Z,2.95
2018-04-26T08:47:00.175Z,3.97
2018-04-26T08:49:29.469Z,3.60
2018-04-26T08:52:07.062Z,2.70
2018-04-26T08:54:41.964Z,3.58
2018-04-26T08:59:48.986Z,2.50
2018-04-26T09:02:22.416Z,2.70
2018-04-26T09:05:02.708Z,2.47
2018-04-26T09:07:35.153Z,2.42
2018-04-26T09:10:07.943Z,2.87
2018-04-26T09:12:41.880Z,2.05
2018-04-26T09:15:11.335Z,2.12
2018-04-26T09:17:43.884Z,2.40
2018-04-26T09:20:24.386Z,2.40
2018-04-26T09:23:02.412Z,2.40
2018-04-26T09:28:17.099Z,3.20
2018-04-26T09:30:55.363Z,2.75
2018-04-26T09:33:35.430Z,3.45
2018-04-26T09:36:13.198Z,3.15
2018-04-26T09:38:54.714Z,3.12
2018-04-26T09:46:38.445Z,3.17
2018-04-26T09:51:52.731Z,3.33
2018-04-26T09:54:27.681Z,3.20
2018-04-26T09:56:57.099Z,3.40
2018-04-26T09:59:26.564Z,3.47
2018-04-26T10:02:08.511Z,4.60
2018-04-26T10:04:58.492Z,3.37
2018-04-26T10:07:29.161Z,3.33
2018-04-26T10:10:01.577Z,3.20
2018-04-26T10:12:34.318Z,4.07
2018-04-26T10:15:14.661Z,3.60
2018-04-26T10:17:43.992Z,3.22
2018-04-26T10:20:15.434Z,3.20
2018-04-26T10:22:49.108Z,3.85
2018-04-26T10:25:19.186Z,3.30
2018-04-26T10:27:48.819Z,3.53
2018-04-26T10:30:19.555Z,3.90
2018-04-26T10:32:52.435Z,3.10
2018-04-26T10:35:22.494Z,3.70
2018-04-26T10:37:52.395Z,2.80
2018-04-26T10:40:22.073Z,3.15
2018-04-26T10:45:33.165Z,2.53
2018-04-26T10:48:03.611Z,2.50
2018-04-26T10:50:40.250Z,3.10
2018-04-26T10:53:09.655Z,3.10
2018-04-26T10:55:41.261Z,3.37
2018-04-26T11:00:59.538Z,4.70
2018-04-26T11:03:31.462Z,5.12
2018-04-26T11:06:10.631Z,4.47
2018-04-26T11:08:41.607Z,4.97
2018-04-26T11:11:11.574Z,5.10
2018-04-26T11:13:45.809Z,5.15
2018-04-26T11:16:19.928Z,5.30
2018-04-26T11:18:49.979Z,5.50
2018-04-26T11:21:23.044Z,5.30
2018-04-26T11:26:39.320Z,5.40
2018-04-26T11:29:09.772Z,5.10
2018-04-26T11:31:48.137Z,5.45
2018-04-26T11:34:22.594Z,5.50
2018-04-26T11:36:52.308Z,5.68
2018-04-26T11:39:29.342Z,5.30
2018-04-26T11:41:59.481Z,5.55
2018-04-26T11:44:32.241Z,6.60
2018-04-26T11:47:02.361Z,5.18
2018-04-26T11:49:31.832Z,5.43
2018-04-26T11:52:02.122Z,5.32
2018-04-26T11:54:32.135Z,5.80
2018-04-26T11:57:02.199Z,5.72
2018-04-26T11:59:31.694Z,6.40
2018-04-26T12:02:01.931Z,5.57
2018-04-26T12:04:32.001Z,5.93
2018-04-26T12:07:02.966Z,5.53
2018-04-26T12:09:32.319Z,5.35
2018-04-26T12:12:01.623Z,5.97
2018-04-26T12:14:31.316Z,6.00
2018-04-26T12:17:00.516Z,6.78
2018-04-26T12:19:30.525Z,5.37
2018-04-26T12:22:00.572Z,4.68
2018-04-26T12:24:29.897Z,4.32
2018-04-26T12:27:01.946Z,4.32
2018-04-26T12:29:32.351Z,5.80
2018-04-26T12:32:02.979Z,4.47
2018-04-26T12:34:42.306Z,4.05
2018-04-26T12:37:11.744Z,4.07
2018-04-26T12:39:41.867Z,3.97
2018-04-26T12:42:11.153Z,5.10
2018-04-26T12:44:40.372Z,5.75
2018-04-26T12:47:10.435Z,4.40
2018-04-26T12:49:40.242Z,5.57
2018-04-26T12:52:10.441Z,4.60
2018-04-26T12:54:41.756Z,4.57
2018-04-26T12:57:17.566Z,5.18
2018-04-26T12:59:47.881Z,6.60
2018-04-26T13:02:17.327Z,5.20
2018-04-26T13:04:47.008Z,6.20
2018-04-26T13:07:16.647Z,5.10
2018-04-26T13:09:46.448Z,4.72
2018-04-26T13:12:16.745Z,5.28
2018-04-26T13:14:48.366Z,4.87
2018-04-26T13:17:18.697Z,5.40
2018-04-26T13:19:49.058Z,5.07
2018-04-26T13:22:18.939Z,6.30
2018-04-26T13:24:49.030Z,6.30
2018-04-26T13:27:26.028Z,7.20
2018-04-26T13:29:56.282Z,6.65
2018-04-26T13:32:29.929Z,6.95
2018-04-26T13:34:59.245Z,6.07
2018-04-26T13:37:29.036Z,5.82
2018-04-26T13:39:59.612Z,5.65
2018-04-26T13:42:29.586Z,5.12
2018-04-26T13:44:59.037Z,5.65
2018-04-26T13:47:28.510Z,4.68
2018-04-26T13:49:58.949Z,4.32
2018-04-26T13:52:29.074Z,5.12
2018-04-26T13:54:59.059Z,4.90
2018-04-26T13:57:29.408Z,5.00
2018-04-26T13:59:59.728Z,4.70
2018-04-26T14:02:30.775Z,4.65
2018-04-26T14:05:03.134Z,4.22
2018-04-26T14:07:36.856Z,4.43
2018-04-26T14:10:15.647Z,4.37
2018-04-26T14:12:46.412Z,4.80
2018-04-26T14:15:25.968Z,5.40
2018-04-26T14:17:56.843Z,4.90
2018-04-26T14:20:27.079Z,5.07
2018-04-26T14:22:57.479Z,5.50
2018-04-26T14:25:28.390Z,5.62
2018-04-26T14:27:59.355Z,5.37
2018-04-26T14:30:28.743Z,5.85
2018-04-26T14:32:58.131Z,5.50
2018-04-26T14:35:27.920Z,6.12
2018-04-26T14:37:58.388Z,7.30
2018-04-26T14:40:27.885Z,5.45
2018-04-26T14:42:57.119Z,6.10
2018-04-26T14:45:26.478Z,6.50
2018-04-26T14:47:57.468Z,5.40
2018-04-26T14:50:28.668Z,5.95
2018-04-26T14:52:59.250Z,6.37
2018-04-26T14:55:35.949Z,5.50
2018-04-26T14:58:06.905Z,5.85
2018-04-26T15:00:36.767Z,5.37
2018-04-26T15:03:06.306Z,4.57
2018-04-26T15:05:36.422Z,5.25
2018-04-26T15:08:08.013Z,5.20
2018-04-26T15:10:45.354Z,5.72
2018-04-26T15:13:16.069Z,6.12
2018-04-26T15:15:46.050Z,5.87
2018-04-26T15:18:15.268Z,6.20
2018-04-26T15:20:45.054Z,7.00
2018-04-26T15:23:19.633Z,6.32
2018-04-26T15:25:49.057Z,4.72
2018-04-26T15:28:19.712Z,4.35
2018-04-26T15:30:50.552Z,4.20
2018-04-26T15:33:19.939Z,3.92
2018-04-26T15:35:49.454Z,4.15
2018-04-26T15:38:20.507Z,4.50
2018-04-26T15:40:50.166Z,4.03
2018-04-26T15:43:20.221Z,4.90
2018-04-26T15:45:50.458Z,4.10
2018-04-26T15:48:21.947Z,4.40
2018-04-26T15:50:55.368Z,4.20
2018-04-26T15:54:35.685Z,4.30
2018-04-26T15:57:36.533Z,4.57
2018-04-26T16:00:21.179Z,5.60
2018-04-26T16:05:12.412Z,5.30
2018-04-26T16:09:55.936Z,5.70
2018-04-26T16:14:44.673Z,5.90
2018-04-26T16:18:29.538Z,5.87
2018-04-26T16:21:19.212Z,6.10
2018-04-26T16:24:06.023Z,6.22
2018-04-26T16:28:06.032Z,7.43
2018-04-26T16:30:53.918Z,6.62
2018-04-26T16:33:50.331Z,5.90
2018-04-26T16:36:32.044Z,5.55
2018-04-26T16:39:10.971Z,6.20
2018-04-26T16:41:42.035Z,5.55
2018-04-26T16:44:11.373Z,5.97
2018-04-26T16:46:48.193Z,5.35
2018-04-26T16:49:17.510Z,5.32
2018-04-26T16:51:48.076Z,4.80
2018-04-26T16:54:17.757Z,5.85
2018-04-26T16:56:47.420Z,5.60
2018-04-26T16:59:21.007Z,6.05
2018-04-26T17:01:51.975Z,5.50
2018-04-26T17:04:21.279Z,6.00
2018-04-26T17:06:50.476Z,7.55
2018-04-26T17:09:19.895Z,6.43
2018-04-26T17:11:53.071Z,5.45
2018-04-26T17:14:22.985Z,7.22
2018-04-26T17:16:52.447Z,5.18
2018-04-26T17:19:22.682Z,5.35
2018-04-26T17:21:53.193Z,6.00
2018-04-26T17:24:25.104Z,4.65
2018-04-26T17:26:54.757Z,4.12
2018-04-26T17:29:24.466Z,3.87
2018-04-26T17:31:55.150Z,4.50
2018-04-26T17:34:24.883Z,4.43
2018-04-26T17:36:54.431Z,3.78
2018-04-26T17:39:25.898Z,4.25
2018-04-26T17:41:56.161Z,3.72
2018-04-26T17:44:26.163Z,3.70
2018-04-26T17:46:55.949Z,3.67
2018-04-26T17:49:25.654Z,3.20
2018-04-26T17:51:55.450Z,4.25
2018-04-26T17:54:25.008Z,3.90
2018-04-26T17:56:55.098Z,3.45
2018-04-26T17:59:26.123Z,3.00
2018-04-26T18:01:56.999Z,3.15
2018-04-26T18:04:26.202Z,3.55
2018-04-26T18:06:55.502Z,3.33
2018-04-26T18:09:25.864Z,3.42
2018-04-26T18:11:55.054Z,3.40
2018-04-26T18:14:25.114Z,3.67
2018-04-26T18:16:55.256Z,3.37
2018-04-26T18:19:24.531Z,3.97
2018-04-26T18:21:54.594Z,3.97
2018-04-26T18:24:23.760Z,4.30
2018-04-26T18:26:53.942Z,4.03
2018-04-26T18:29:23.388Z,4.30
2018-04-26T18:31:53.486Z,4.60
2018-04-26T18:34:29.354Z,4.78
2018-04-26T18:36:58.823Z,4.45
2018-04-26T18:39:28.091Z,4.65
2018-04-26T18:41:58.301Z,4.47
2018-04-26T18:44:33.479Z,4.65
2018-04-26T18:47:03.054Z,5.22
2018-04-26T19:33:14.401Z,6.45
2018-04-26T19:35:43.778Z,5.25
2018-04-26T19:38:13.595Z,4.95
2018-04-26T19:40:43.613Z,5.72
2018-04-26T19:43:13.865Z,5.40
2018-04-26T19:45:43.154Z,4.55
2018-04-26T19:48:12.311Z,3.83
2018-04-26T19:53:33.428Z,4.32
2018-04-26T19:56:05.216Z,3.75
2018-04-26T19:58:34.517Z,4.18
2018-04-26T20:01:08.435Z,3.50
2018-04-26T20:03:38.997Z,3.95
2018-04-26T20:06:08.339Z,3.90
2018-04-26T20:08:37.782Z,3.50
2018-04-26T20:11:07.278Z,3.05
2018-04-26T20:13:36.729Z,3.50
2018-04-26T20:16:05.856Z,3.70
2018-04-26T20:18:35.649Z,3.53
2018-04-26T20:21:05.034Z,3.70
2018-04-26T20:23:35.694Z,3.50
2018-04-26T20:26:06.808Z,3.40
2018-04-26T20:28:37.148Z,3.45
2018-04-26T20:31:06.713Z,3.70
2018-04-26T20:33:36.124Z,3.85
2018-04-26T20:36:05.620Z,3.75
2018-04-26T20:38:36.437Z,3.70
2018-04-26T20:41:06.622Z,3.78
2018-04-26T20:43:35.951Z,3.08
2018-04-26T20:46:06.185Z,3.60
2018-04-26T20:48:41.821Z,4.03
2018-04-26T20:51:11.686Z,4.53
2018-04-26T20:53:41.753Z,3.70
2018-04-26T20:56:11.721Z,4.05
2018-04-26T20:58:40.764Z,4.90
2018-04-26T21:01:10.711Z,4.25
2018-04-26T21:03:40.101Z,4.45
2018-04-26T21:06:09.848Z,8.00
2018-04-26T21:08:39.690Z,4.78
2018-04-26T21:11:08.963Z,4.25
2018-04-26T21:13:38.811Z,4.30
2018-04-26T21:16:08.927Z,4.60
2018-04-26T21:18:38.362Z,4.60
2018-04-26T21:21:07.613Z,4.50
2018-04-26T21:23:36.862Z,5.95
2018-04-26T21:26:06.874Z,4.25
2018-04-26T21:28:36.333Z,4.80
2018-04-26T21:31:06.386Z,5.10
2018-04-26T21:33:36.739Z,5.35
2018-04-26T21:36:05.929Z,5.55
2018-04-26T21:38:35.926Z,5.97
2018-04-26T21:41:06.109Z,7.15
2018-04-26T21:43:36.232Z,7.35
2018-04-26T21:46:05.522Z,7.37
2018-04-26T21:48:34.653Z,7.72
2018-04-26T21:51:09.834Z,7.35
2018-04-26T21:53:45.281Z,6.32
2018-04-26T21:56:19.763Z,6.05
2018-04-26T21:58:53.961Z,6.85
2018-04-26T22:01:28.251Z,6.80
2018-04-26T22:04:03.317Z,6.45
2018-04-26T22:06:32.973Z,6.62
2018-04-26T22:09:08.341Z,7.00
2018-04-26T22:11:37.454Z,7.62
2018-04-26T22:14:06.746Z,7.47
2018-04-26T22:16:35.842Z,8.27
2018-04-26T22:19:07.630Z,8.93
2018-04-26T22:21:37.538Z,9.07
2018-04-26T22:24:07.580Z,7.35
2018-04-26T22:26:36.653Z,6.22
2018-04-26T22:29:07.399Z,7.65
2018-04-26T22:31:36.549Z,6.35
2018-04-26T22:34:06.101Z,7.25
2018-04-26T22:36:36.220Z,5.60
2018-04-26T22:39:05.662Z,5.62
2018-04-26T22:41:40.718Z,6.40
2018-04-26T22:44:10.694Z,6.00
2018-04-26T22:46:39.989Z,5.50
2018-04-26T22:49:09.081Z,5.07
2018-04-26T22:51:38.342Z,5.55
2018-04-26T22:54:07.671Z,6.10
2018-04-26T22:56:37.058Z,7.03
2018-04-26T22:59:07.001Z,7.40
2018-04-26T23:01:37.166Z,7.68
2018-04-26T23:04:06.867Z,7.57
2018-04-26T23:06:35.970Z,9.35
2018-04-26T23:09:05.457Z,8.20
2018-04-26T23:11:34.515Z,7.90
2018-04-26T23:14:34.160Z,7.60
2018-04-26T23:17:03.270Z,7.32
2018-04-26T23:19:32.369Z,6.75
2018-04-26T23:22:01.471Z,7.93
2018-04-26T23:24:30.522Z,7.37
2018-04-26T23:26:59.599Z,7.55
2018-04-26T23:29:29.476Z,7.45
2018-04-26T23:31:58.560Z,7.37
2018-04-26T23:34:27.958Z,7.40
2018-04-26T23:36:57.061Z,8.18
2018-04-26T23:39:26.142Z,8.43
2018-04-26T23:41:55.211Z,6.93
2018-04-26T23:44:24.336Z,7.07
2018-04-26T23:46:53.358Z,6.90
2018-04-26T23:49:22.380Z,7.25
2018-04-26T23:51:52.257Z,6.93
2018-04-26T23:54:21.327Z,6.90
2018-04-26T23:56:50.358Z,7.05
2018-04-26T23:59:19.398Z,6.95
